Flight Track Log - Related Links

Times and Time Zones

All times are in EDT time to prevent confusion due to time zone crossing. See the N75ZM flight status page for this flight to view local times or setup timezone preferences in your user account.

Time Position Orientation Groundspeed Altitude Reporting Facility
EDT Latitude Longitude Course Direction KTS MPH feet Rate Location/Type
Sun 10:59:41 AM 30.3383 -81.5111 355° North 70 81 800  Level Jacksonville Center
Sun 11:01:06 AM 30.3803 -81.5153 355° North 122 140 1,900 750 Climbing Jacksonville Center
Sun 11:02:13 AM 30.4219 -81.5194 355° North 132 152 2,700 732 Climbing Jacksonville Center
Sun 11:03:09 AM 30.4553 -81.5189 North 131 151 3,400 709 Climbing Jacksonville Center
Sun 11:04:03 AM 30.4889 -81.5208 357° North 131 151 4,000 545 Climbing Jacksonville Center
Sun 11:04:59 AM 30.5244 -81.5228 357° North 140 161 4,400 465 Climbing Jacksonville Center
Sun 11:06:12 AM 30.5722 -81.5197 North 145 167 5,000 516 Climbing Jacksonville Center
Sun 11:07:07 AM 30.6081 -81.5386 336° Northwest 149 171 5,500 517 Climbing Jacksonville Center
Sun 11:08:08 AM 30.6417 -81.5597 332° Northwest 140 161 6,000 492 Climbing Jacksonville Center
Sun 11:09:09 AM 30.6772 -81.5811 333° Northwest 139 160 6,500 414 Climbing Jacksonville Center
Sun 11:10:04 AM 30.7089 -81.6047 327° Northwest 140 161 6,800 429 Climbing Jacksonville Center
Sun 11:10:05 AM 30.7067 -81.6022 136° Southeast 138 159 6,900 500 Climbing Jacksonville Center
Sun 11:11:04 AM 30.7383 -81.6236 330° Northwest 140 161 7,300 454 Climbing Jacksonville Center
Sun 11:12:04 AM 30.7700 -81.6450 330° Northwest 140 161 7,800 500 Climbing Jacksonville Center
Sun 11:13:04 AM 30.8036 -81.6686 329° Northwest 140 161 8,300 500 Climbing Jacksonville Center
Sun 11:14:04 AM 30.8372 -81.6900 331° Northwest 140 161 8,800 400 Climbing Jacksonville Center
Sun 11:15:04 AM 30.8728 -81.7139 330° Northwest 140 161 9,100 150 Climbing Jacksonville Center
Sun 11:16:04 AM 30.9128 -81.7375 333° Northwest 147 169 9,100  Level Jacksonville Center
Sun 11:17:04 AM 30.9525 -81.7614 333° Northwest 153 176 9,100  Level Jacksonville Center
Sun 11:18:04 AM 30.9925 -81.7900 328° Northwest 165 190 9,100  Level Jacksonville Center
Sun 11:19:04 AM 31.0325 -81.8161 331° Northwest 165 190 9,100  Level Jacksonville Center
Sun 11:20:04 AM 31.0722 -81.8422 331° Northwest 165 190 9,100  Level Jacksonville Center
Sun 11:21:04 AM 31.1183 -81.8686 334° Northwest 165 190 9,100  Level Jacksonville Center
Sun 11:22:04 AM 31.1542 -81.8900 333° Northwest 165 190 9,100  Level Jacksonville Center
Sun 11:23:04 AM 31.1961 -81.9186 330° Northwest 165 190 9,100  Level Jacksonville Center
Sun 11:24:04 AM 31.2403 -81.9472 331° Northwest 165 190 9,100  Level Jacksonville Center
Sun 11:25:04 AM 31.2781 -81.9736 329° Northwest 165 190 9,100  Level Jacksonville Center
Sun 11:26:04 AM 31.3200 -82.0025 330° Northwest 165 190 9,100 -250 Level Jacksonville Center
Sun 11:27:04 AM 31.3578 -82.0289 329° Northwest 170 196 8,600 -500 Descending Jacksonville Center
Sun 11:28:04 AM 31.4081 -82.0575 334° Northwest 175 201 8,100 -250 Descending Jacksonville Center
Sun 11:29:04 AM 31.4500 -82.0864 330° Northwest 182 209 8,100  Level Jacksonville Center
Sun 11:30:04 AM 31.4897 -82.1153 328° Northwest 177 204 8,100  Level Jacksonville Center
Sun 11:31:04 AM 31.5275 -82.1369 334° Northwest 167 192 8,100  Level Jacksonville Center
Sun 11:32:04 AM 31.5653 -82.1636 329° Northwest 167 192 8,100  Level Jacksonville Center
Sun 11:33:04 AM 31.6114 -82.1925 332° Northwest 167 192 8,100  Level Jacksonville Center
Sun 11:34:04 AM 31.6511 -82.2214 328° Northwest 167 192 8,100  Level Jacksonville Center
Sun 11:35:04 AM 31.6931 -82.2481 332° Northwest 162 186 8,100  Level Jacksonville Center
Sun 11:36:04 AM 31.7286 -82.2722 330° Northwest 162 186 8,100  Level Jacksonville Center
Sun 11:37:04 AM 31.7664 -82.2964 331° Northwest 162 186 8,100  Level Jacksonville Center
Sun 11:38:04 AM 31.8061 -82.3231 330° Northwest 162 186 8,100 -50 Level Jacksonville Center
Sun 11:39:04 AM 31.8481 -82.3522 329° Northwest 162 186 8,000  Descending Jacksonville Center
Sun 11:40:04 AM 31.8919 -82.3811 331° Northwest 162 186 8,100 50 Climbing Jacksonville Center
Sun 11:41:04 AM 31.9339 -82.4078 332° Northwest 167 192 8,100  Level Jacksonville Center
Sun 11:42:04 AM 31.9717 -82.4347 329° Northwest 167 192 8,100  Level Jacksonville Center
Sun 11:43:04 AM 32.0114 -82.4614 330° Northwest 167 192 8,100 -50 Level Jacksonville Center
Sun 11:44:04 AM 32.0489 -82.4881 329° Northwest 161 185 8,000  Descending Jacksonville Center
Sun 11:45:04 AM 32.0886 -82.5150 330° Northwest 166 191 8,100 50 Climbing Jacksonville Center
Sun 11:46:04 AM 32.1328 -82.5417 333° Northwest 166 191 8,100 50 Level Jacksonville Center
Sun 11:47:04 AM 32.1683 -82.5686 327° Northwest 166 191 8,200 50 Climbing Jacksonville Center
Sun 11:48:04 AM 32.2081 -82.5956 330° Northwest 166 191 8,200  Level Jacksonville Center
Sun 11:50:25 AM 32.3167 -82.6500 337° Northwest 168 193 8,200  Level Atlanta TRACON
Sun 11:51:31 AM 32.3500 -82.6833 320° Northwest 166 191 8,200  Level Atlanta TRACON
Sun 11:52:31 AM 32.3833 -82.7167 320° Northwest 167 192 8,200  Level Atlanta TRACON
Sun 11:53:25 AM 32.4333 -82.7333 344° North 166 191 8,200 -53 Level Atlanta TRACON
Sun 11:54:25 AM 32.4667 -82.7667 320° Northwest 170 196 8,100 -50 Descending Atlanta TRACON
Sun 11:55:25 AM 32.5000 -82.8000 320° Northwest 167 192 8,100  Level Atlanta TRACON
Sun 11:56:25 AM 32.5500 -82.8167 344° North 167 192 8,100  Level Atlanta TRACON
Sun 11:57:25 AM 32.5833 -82.8500 320° Northwest 166 191 8,100 -150 Level Atlanta TRACON
Sun 11:58:25 AM 32.6167 -82.9000 308° West 175 201 7,800 -250 Descending Atlanta TRACON
Sun 11:59:25 AM 32.6500 -82.9333 320° Northwest 177 204 7,600 -250 Descending Atlanta TRACON
Sun 12:00:25 PM 32.6833 -82.9667 320° Northwest 177 204 7,300 -300 Descending Atlanta TRACON
Sun 12:01:25 PM 32.7333 -83.0167 320° Northwest 176 203 7,000 -250 Descending Atlanta TRACON
Sun 12:02:25 PM 32.7667 -83.0500 320° Northwest 174 200 6,800 -238 Descending Atlanta TRACON
Sun 12:03:31 PM 32.8000 -83.1000 308° West 171 197 6,500 -300 Descending Atlanta TRACON
Sun 12:04:25 PM 32.8333 -83.1333 320° Northwest 171 197 6,200 -158 Descending Atlanta TRACON
Sun 12:05:25 PM 32.8667 -83.1667 320° Northwest 167 192 6,200 -48 Level Atlanta TRACON
Sun 12:06:31 PM 32.9000 -83.2000 320° Northwest 161 185 6,100 -48 Descending Atlanta TRACON
Sun 12:07:31 PM 32.9333 -83.2500 308° West 159 183 6,100  Level Atlanta TRACON
Sun 12:08:31 PM 32.9667 -83.2833 320° Northwest 156 180 6,100  Level Atlanta TRACON
Sun 12:09:31 PM 33.0000 -83.3167 320° Northwest 157 181 6,100 50 Level Atlanta TRACON
Sun 12:10:31 PM 33.0333 -83.3500 320° Northwest 157 181 6,200  Climbing Atlanta TRACON
Sun 12:11:31 PM 33.0667 -83.3833 320° Northwest 158 182 6,100 -50 Descending Atlanta TRACON
Sun 12:12:31 PM 33.1000 -83.4167 320° Northwest 157 181 6,100  Level Atlanta TRACON
Sun 12:13:31 PM 33.1167 -83.4500 301° West 159 183 6,100  Level Atlanta TRACON
Sun 12:14:31 PM 33.1500 -83.5000 309° West 153 176 6,100  Level Atlanta TRACON
Sun 12:15:31 PM 33.1833 -83.5333 320° Northwest 160 184 6,100 50 Level Atlanta TRACON
Sun 12:16:31 PM 33.2167 -83.5667 320° Northwest 159 183 6,200  Climbing Atlanta TRACON
Sun 12:17:31 PM 33.2500 -83.6000 320° Northwest 164 189 6,100 -50 Descending Atlanta TRACON
Sun 12:18:31 PM 33.2833 -83.6333 320° Northwest 164 189 6,100 53 Level Atlanta TRACON
Sun 12:19:25 PM 33.3167 -83.6667 320° Northwest 160 184 6,200  Climbing Atlanta TRACON
Sun 12:20:31 PM 33.3500 -83.7167 309° West 159 183 6,100 -238 Descending Atlanta TRACON
Sun 12:21:31 PM 33.3833 -83.7333 337° Northwest 170 196 5,700 -450 Descending Atlanta TRACON
Sun 12:22:31 PM 33.4333 -83.7667 331° Northwest 177 204 5,200 -474 Descending Atlanta TRACON
Sun 12:23:25 PM 33.4667 -83.8000 320° Northwest 179 206 4,800 -500 Descending Atlanta TRACON
Sun 12:24:31 PM 33.5167 -83.8333 331° Northwest 182 209 4,200 -333 Descending Atlanta TRACON
Sun 12:25:31 PM 33.5667 -83.8667 331° Northwest 175 201 4,100  Descending Atlanta TRACON
Sun 12:26:31 PM 33.6000 -83.8833 337° Northwest 169 194 4,200  Climbing Atlanta TRACON
Sun 12:27:31 PM 33.6500 -83.8833 360° North 166 191 4,100 -50 Descending Atlanta TRACON
Sun 12:28:31 PM 33.7000 -83.9000 345° North 162 186 4,100  Level Atlanta TRACON
Sun 12:29:31 PM 33.7500 -83.9000 360° North 166 191 4,100  Level Atlanta TRACON
Sun 12:30:31 PM 33.7833 -83.9333 320° Northwest 173 199 4,100 -50 Level Atlanta TRACON
Sun 12:31:31 PM 33.8000 -83.9833 292° West 176 203 4,000 -298 Descending Atlanta TRACON
Sun 12:32:32 PM 33.8000 -84.0500 270° West 187 215 3,500 -446 Descending Atlanta TRACON
Sun 12:33:32 PM 33.8167 -84.1000 292° West 182 209 3,100 -150 Descending Atlanta TRACON
Sun 12:34:32 PM 33.8167 -84.1667 270° West 174 200 3,200  Climbing Atlanta TRACON
Sun 12:35:31 PM 33.8333 -84.2167 292° West 164 189 3,100 -368 Descending Atlanta TRACON
Sun 12:36:26 PM 33.8333 -84.2667 270° West 141 162 2,500 -574 Descending Atlanta TRACON
Sun 12:37:26 PM 33.8333 -84.3000 270° West 119 137 2,000 -500 Descending Atlanta TRACON
Sun 12:39:00 PM 33.8667 -84.3000 286° West  Level FlightAware Approximate
Sun 12:46:00 PM 33.8756 -84.3020 286° West  Level Estimated

Login

Don't have an account? Register now (free) for customized features, flight alerts, and more!